Time;durP1;ratioP1;P1;durP2;ratioP2;P2;SDS_P1;SDS_P2;PMS_P1;PMS_P2;Temp;Humidity;BMP_temperature;BMP_pressure;BME280_temperature;BME280_humidity;BME280_pressure;Samples;Min_cycle;Max_cycle;Signal;HPM_P1;HPM_P2
2023/12/05 00:01:09;;;;;;;15.13;10.03;;;2.40;92.00;;;4.00;64.44;100455.03;3082044;46;21052;-66
2023/12/05 00:03:38;;;;;;;15.13;9.00;;;2.40;92.00;;;3.99;64.44;100453.41;3081185;43;20558;-65
2023/12/05 00:06:11;;;;;;;12.73;8.73;;;2.40;92.10;;;3.97;64.41;100450.91;3082368;46;20525;-66
2023/12/05 00:08:39;;;;;;;14.33;9.50;;;2.40;92.20;;;3.95;64.61;100447.63;3082569;46;21493;-66
2023/12/05 00:11:08;;;;;;;12.37;9.00;;;2.40;92.20;;;3.96;64.93;100444.09;3082290;46;20431;-66
2023/12/05 00:13:37;;;;;;;13.40;9.10;;;2.40;92.40;;;3.94;64.84;100440.81;3081740;46;20575;-66
2023/12/05 00:16:07;;;;;;;14.37;9.07;;;2.40;92.40;;;3.94;65.43;100438.19;3082525;46;20635;-65
2023/12/05 00:18:37;;;;;;;14.63;9.43;;;2.40;92.60;;;3.96;65.14;100444.09;3082564;46;20488;-66
2023/12/05 00:21:06;;;;;;;13.57;9.77;;;2.40;92.60;;;3.98;65.16;100436.94;3082100;46;20530;-66
2023/12/05 00:23:35;;;;;;;15.67;9.80;;;2.40;92.60;;;3.98;65.47;100436.94;3080945;43;20477;-67
2023/12/05 00:26:04;;;;;;;14.80;9.10;;;2.40;92.80;;;3.98;65.34;100434.34;3082385;46;21029;-66
2023/12/05 00:28:32;;;;;;;12.27;9.30;;;2.40;92.70;;;3.98;65.32;100430.91;3081855;46;20583;-65
2023/12/05 00:31:01;;;;;;;14.27;9.83;;;2.40;92.60;;;3.97;65.42;100419.69;3081540;46;21079;-65
2023/12/05 00:33:29;;;;;;;14.77;9.67;;;2.40;92.70;;;3.94;65.42;100425.19;3081761;46;20501;-66
2023/12/05 00:35:58;;;;;;;15.17;9.97;;;2.40;92.70;;;3.91;65.40;100425.47;3081778;46;21083;-65
2023/12/05 00:38:26;;;;;;;14.17;9.93;;;2.40;92.70;;;3.89;65.82;100411.78;3081779;46;20438;-66
2023/12/05 00:40:58;;;;;;;15.70;9.17;;;2.30;92.70;;;3.91;66.01;100417.66;3081500;46;20999;-66
2023/12/05 00:43:27;;;;;;;15.63;9.73;;;2.30;93.00;;;3.92;66.13;100416.66;3081845;46;20442;-66
2023/12/05 00:45:55;;;;;;;16.67;9.87;;;2.30;93.20;;;3.93;66.26;100420.94;3081937;46;20431;-64
2023/12/05 00:48:24;;;;;;;13.63;9.67;;;2.30;93.30;;;3.93;66.15;100418.31;3081968;46;20446;-66
2023/12/05 00:50:53;;;;;;;15.27;9.70;;;2.40;93.30;;;3.95;66.20;100416.41;3081769;46;20552;-66
2023/12/05 00:53:22;;;;;;;17.57;11.33;;;2.30;93.20;;;3.96;66.42;100406.81;3081476;46;21031;-66
2023/12/05 00:55:50;;;;;;;14.40;9.70;;;2.40;93.30;;;3.94;66.33;100393.94;3081629;46;20453;-66
2023/12/05 00:58:19;;;;;;;15.43;10.10;;;2.40;93.20;;;3.95;66.28;100403.38;3081760;46;20495;-66
2023/12/05 01:00:47;;;;;;;15.90;9.97;;;2.40;93.20;;;3.96;66.09;100397.22;3081932;46;21025;-65
2023/12/05 01:03:16;;;;;;;17.00;11.20;;;2.40;93.30;;;3.95;66.18;100394.75;3081638;46;20530;-66
2023/12/05 01:05:47;;;;;;;19.03;10.57;;;2.40;93.10;;;3.93;66.33;100394.91;3081610;46;20999;-66
2023/12/05 01:08:15;;;;;;;16.27;10.63;;;2.40;93.20;;;3.92;66.46;100395.84;3081614;46;20471;-66
2023/12/05 01:10:44;;;;;;;13.63;9.90;;;2.40;93.20;;;3.93;66.17;100392.28;3081437;46;20434;-66
2023/12/05 01:13:12;;;;;;;15.10;10.83;;;2.30;93.20;;;3.92;66.28;100390.66;3081319;46;20579;-65
2023/12/05 01:15:40;;;;;;;14.63;10.53;;;2.30;93.30;;;3.94;66.30;100388.75;3081621;46;20466;-66
2023/12/05 01:18:10;;;;;;;15.87;10.57;;;2.30;93.30;;;3.96;66.57;100392.03;3081089;46;21087;-66
2023/12/05 01:20:39;;;;;;;14.13;9.80;;;2.30;93.30;;;3.97;66.36;100388.44;3081298;46;20431;-66
2023/12/05 01:23:07;;;;;;;17.50;11.83;;;2.30;93.40;;;4.01;66.58;100389.00;3081542;46;20569;-64
2023/12/05 01:25:36;;;;;;;13.30;9.90;;;2.40;93.60;;;3.98;66.49;100390.09;3081425;46;20572;-65
2023/12/05 01:28:04;;;;;;;16.90;10.80;;;2.40;93.40;;;3.95;66.59;100390.38;3080936;46;20988;-65
2023/12/05 01:30:32;;;;;;;17.80;11.03;;;2.40;93.40;;;3.92;66.48;100388.03;3080750;46;20570;-66
2023/12/05 01:33:01;;;;;;;17.00;11.63;;;2.40;93.30;;;3.90;66.55;100395.16;3081485;46;20512;-66
2023/12/05 01:35:29;;;;;;;16.30;10.33;;;2.40;93.40;;;3.88;66.86;100384.09;3081386;46;20530;-66
2023/12/05 01:37:58;;;;;;;19.33;11.50;;;2.30;93.40;;;3.87;67.02;100387.66;3081520;46;20461;-66
2023/12/05 01:40:26;;;;;;;16.83;10.77;;;2.30;93.40;;;3.85;66.96;100379.16;3081553;46;21074;-66
2023/12/05 01:42:55;;;;;;;15.63;11.07;;;2.30;93.50;;;3.85;66.89;100383.56;3080908;46;21095;-66
2023/12/05 01:45:23;;;;;;;17.33;11.30;;;2.30;93.50;;;3.88;67.06;100384.09;3080705;46;20548;-65
2023/12/05 01:47:52;;;;;;;18.13;10.93;;;2.30;93.80;;;3.89;66.98;100380.53;3081118;46;21027;-64
2023/12/05 01:50:27;;;;;;;18.20;11.30;;;2.30;93.70;;;3.87;67.07;100381.63;3081450;46;20447;-66
2023/12/05 01:53:03;;;;;;;15.33;10.37;;;2.30;93.70;;;3.87;67.38;100382.47;3080521;46;20440;-65
2023/12/05 01:55:32;;;;;;;19.27;11.50;;;2.30;93.80;;;3.91;67.47;100376.00;3080837;46;20455;-66
2023/12/05 01:58:01;;;;;;;18.13;12.40;;;2.30;93.80;;;3.92;67.10;100380.22;3081509;46;20977;-66
2023/12/05 02:00:29;;;;;;;16.17;10.40;;;2.30;93.80;;;3.93;67.38;100376.69;3080619;46;20489;-64
2023/12/05 02:02:58;;;;;;;15.37;10.97;;;2.30;93.80;;;3.96;67.51;100381.63;3080754;43;20576;-66
2023/12/05 02:05:27;;;;;;;17.20;10.40;;;2.30;93.90;;;3.97;67.13;100372.03;3081143;46;20434;-66
2023/12/05 02:07:55;;;;;;;16.23;10.93;;;2.40;93.90;;;3.99;67.51;100370.91;3081096;46;20463;-66
2023/12/05 02:10:24;;;;;;;16.73;11.40;;;2.40;94.00;;;4.05;67.56;100365.13;3081252;46;20438;-66
2023/12/05 02:12:52;;;;;;;18.70;11.13;;;2.40;94.00;;;4.07;67.43;100367.59;3080594;46;20430;-66
2023/12/05 02:15:21;;;;;;;17.07;11.77;;;2.40;94.00;;;4.07;67.28;100363.22;3081547;46;21043;-66
2023/12/05 02:18:15;;;;;;;17.73;11.00;;;2.50;93.90;;;4.01;67.03;100369.00;3080684;46;20481;-66
2023/12/05 02:21:13;;;;;;;16.27;10.43;;;2.50;93.70;;;3.99;67.08;100364.91;3080242;46;20431;-66
2023/12/05 02:24:25;;;;;;;17.77;10.97;;;2.50;93.80;;;3.97;67.17;100362.41;3080055;46;21034;-66
2023/12/05 02:27:37;;;;;;;16.67;11.03;;;2.50;93.80;;;3.98;67.42;100364.06;3080908;46;20568;-67
2023/12/05 02:30:07;;;;;;;16.77;11.37;;;2.50;93.90;;;3.96;67.26;100355.59;3081222;46;20987;-68
2023/12/05 02:32:35;;;;;;;16.27;11.37;;;2.40;93.80;;;3.96;68.02;100358.19;3079641;46;21140;-65
2023/12/05 02:35:06;;;;;;;18.93;12.00;;;2.50;93.90;;;3.97;67.68;100359.81;3080741;46;20508;-65
2023/12/05 02:37:57;;;;;;;17.07;11.57;;;2.40;93.90;;;3.94;67.50;100352.31;3080867;46;20494;-66
2023/12/05 02:40:46;;;;;;;17.87;11.80;;;2.40;93.90;;;3.94;67.77;100354.09;3080858;46;20438;-65
2023/12/05 02:43:39;;;;;;;15.47;11.20;;;2.40;93.90;;;3.91;67.74;100349.97;3080058;46;20450;-65
2023/12/05 02:46:10;;;;;;;14.70;10.50;;;2.40;93.90;;;3.91;67.79;100342.16;3079865;46;20453;-66
2023/12/05 02:48:40;;;;;;;15.93;11.07;;;2.40;94.00;;;3.89;67.67;100344.09;3080112;46;20431;-66
2023/12/05 02:51:09;;;;;;;16.70;11.80;;;2.40;94.00;;;3.90;67.76;100340.50;3080512;46;21083;-65
2023/12/05 02:53:38;;;;;;;15.27;11.00;;;2.40;94.10;;;3.92;68.10;100338.59;3079766;46;20438;-66
2023/12/05 02:56:07;;;;;;;18.03;11.93;;;2.40;94.10;;;3.90;67.94;100340.50;3080830;46;20427;-66
2023/12/05 02:58:36;;;;;;;15.60;10.93;;;2.40;94.10;;;3.90;67.58;100335.31;3080880;46;20988;-65
2023/12/05 03:01:04;;;;;;;17.83;10.90;;;2.30;94.00;;;3.90;67.77;100334.47;3080519;46;20488;-66
2023/12/05 03:03:32;;;;;;;17.87;12.03;;;2.30;94.00;;;3.93;67.94;100335.03;3080207;46;21034;-65
2023/12/05 03:06:01;;;;;;;18.17;11.67;;;2.40;94.10;;;3.95;67.54;100334.88;3082113;46;20462;-63
2023/12/05 03:08:30;;;;;;;18.30;11.03;;;2.30;94.00;;;3.95;67.58;100329.69;3082903;46;20565;-65
2023/12/05 03:11:00;;;;;;;16.33;10.87;;;2.40;94.10;;;3.93;67.53;100324.63;3083143;46;20506;-68
2023/12/05 03:13:41;;;;;;;16.97;11.57;;;2.40;94.00;;;3.90;67.62;100324.91;3082573;46;20576;-65
2023/12/05 03:16:10;;;;;;;17.50;11.00;;;2.30;93.90;;;3.91;67.49;100326.56;3083175;46;21084;-65
2023/12/05 03:18:39;;;;;;;17.70;11.63;;;2.40;94.00;;;3.90;67.61;100313.66;3082740;46;20573;-66
2023/12/05 03:21:09;;;;;;;19.60;12.10;;;2.30;93.90;;;3.90;67.71;100319.69;3082674;46;21011;-66
2023/12/05 03:23:37;;;;;;;15.70;10.70;;;2.30;93.90;;;3.87;67.46;100317.41;3081914;46;20449;-66
2023/12/05 03:26:06;;;;;;;16.87;11.77;;;2.30;93.90;;;3.86;67.32;100312.31;3082257;46;20510;-67
2023/12/05 03:28:35;;;;;;;17.13;11.37;;;2.30;93.90;;;3.86;67.82;100315.75;3082953;46;20925;-65
2023/12/05 03:31:03;;;;;;;20.20;12.10;;;2.30;93.90;;;3.85;67.95;100314.09;3082663;46;20544;-65
2023/12/05 03:33:32;;;;;;;18.03;10.90;;;2.30;94.00;;;3.84;67.71;100320.28;3081862;46;20469;-66
2023/12/05 03:36:00;;;;;;;17.50;11.83;;;2.30;93.90;;;3.82;67.63;100319.59;3082036;46;20437;-67
2023/12/05 03:38:28;;;;;;;17.37;10.83;;;2.30;93.90;;;3.83;67.97;100312.59;3082546;46;21028;-66
2023/12/05 03:40:57;;;;;;;18.00;12.50;;;2.30;94.10;;;3.84;67.71;100312.47;3082588;46;20563;-66
2023/12/05 03:43:26;;;;;;;16.73;11.43;;;2.30;94.00;;;3.84;67.74;100311.63;3082426;46;20439;-66
2023/12/05 03:45:54;;;;;;;19.87;13.03;;;2.30;94.00;;;3.86;68.19;100307.94;3082497;46;20492;-66
2023/12/05 03:48:23;;;;;;;18.00;11.93;;;2.30;94.10;;;3.87;67.99;100313.97;3082886;46;20433;-65
2023/12/05 03:50:52;;;;;;;16.67;12.07;;;2.30;94.10;;;3.87;68.01;100309.59;3081530;46;20465;-66
2023/12/05 03:53:21;;;;;;;17.40;11.90;;;2.30;94.10;;;3.87;67.76;100309.59;3082369;46;21019;-66
2023/12/05 03:55:49;;;;;;;15.27;11.70;;;2.30;94.00;;;3.87;68.14;100314.78;3082618;46;20509;-66
2023/12/05 03:58:18;;;;;;;18.40;12.37;;;2.30;94.10;;;3.87;67.90;100312.19;3082405;46;20556;-66
2023/12/05 04:00:47;;;;;;;19.07;12.60;;;2.30;94.10;;;3.88;68.10;100318.19;3082217;46;20483;-65
2023/12/05 04:03:15;;;;;;;17.90;12.37;;;2.30;94.10;;;3.89;68.10;100306.84;3082457;46;20459;-66
2023/12/05 04:05:44;;;;;;;16.87;11.90;;;2.30;94.10;;;3.91;67.92;100307.50;3082236;46;20466;-66
2023/12/05 04:08:12;;;;;;;18.43;12.47;;;2.30;94.10;;;3.92;67.54;100312.56;3082318;46;20434;-65
2023/12/05 04:10:40;;;;;;;18.50;12.83;;;2.30;94.20;;;3.91;67.67;100318.75;3082182;46;20481;-65
2023/12/05 04:13:09;;;;;;;18.63;12.93;;;2.30;94.00;;;3.90;67.77;100313.66;3081819;46;21127;-66
2023/12/05 04:15:39;;;;;;;17.20;12.07;;;2.30;94.00;;;3.91;68.15;100321.34;3081820;46;20456;-66
2023/12/05 04:18:07;;;;;;;19.20;12.63;;;2.30;94.10;;;3.90;67.75;100319.69;3082436;46;20431;-65
2023/12/05 04:20:36;;;;;;;19.77;12.57;;;2.30;94.10;;;3.87;67.74;100319.16;3082077;46;20458;-66
2023/12/05 04:23:04;;;;;;;16.90;12.40;;;2.30;94.00;;;3.85;68.17;100321.91;3082325;46;20508;-66
2023/12/05 04:25:33;;;;;;;20.17;12.90;;;2.30;94.00;;;3.83;68.01;100323.81;3082366;46;20947;-65
2023/12/05 04:28:01;;;;;;;18.37;12.87;;;2.30;94.00;;;3.85;68.00;100321.91;3081454;46;21249;-66
2023/12/05 04:30:29;;;;;;;18.73;13.10;;;2.30;94.10;;;3.87;67.93;100313.97;3081193;46;20475;-64
2023/12/05 04:32:58;;;;;;;18.57;13.30;;;2.30;94.10;;;3.87;68.36;100314.78;3081597;46;20567;-65
2023/12/05 04:35:36;;;;;;;20.40;12.90;;;2.30;94.20;;;3.89;68.35;100312.88;3081313;46;21014;-67
2023/12/05 04:38:05;;;;;;;19.07;12.43;;;2.30;94.30;;;3.93;68.19;100314.22;3081236;46;21022;-65
2023/12/05 04:40:34;;;;;;;20.83;13.53;;;2.40;94.40;;;3.96;68.06;100316.53;3082118;46;20575;-66
2023/12/05 04:43:02;;;;;;;21.70;13.73;;;2.30;94.20;;;3.97;67.91;100319.97;3081991;46;20502;-66
2023/12/05 04:45:31;;;;;;;17.33;12.37;;;2.30;94.10;;;3.95;67.97;100307.06;3082101;46;20498;-66
2023/12/05 04:47:59;;;;;;;19.70;13.00;;;2.30;94.10;;;3.94;67.91;100313.25;3081114;46;20513;-66
2023/12/05 04:50:28;;;;;;;20.33;13.47;;;2.30;94.10;;;3.94;68.29;100313.25;3081802;46;21115;-65
2023/12/05 04:52:56;;;;;;;20.83;13.43;;;2.40;94.20;;;3.94;68.00;100309.84;3081794;46;22624;-66
2023/12/05 04:55:25;;;;;;;20.00;13.47;;;2.40;94.10;;;3.93;67.75;100310.78;3081495;43;20456;-68
2023/12/05 04:57:53;;;;;;;18.47;13.03;;;2.30;94.00;;;3.90;67.85;100311.88;3082064;46;20501;-66
2023/12/05 05:00:22;;;;;;;20.87;13.67;;;2.40;94.20;;;3.94;68.27;100318.47;3081787;46;20446;-66
2023/12/05 05:02:50;;;;;;;18.43;13.00;;;2.30;94.30;;;3.94;68.25;100310.66;3081470;46;20513;-66
2023/12/05 05:05:18;;;;;;;21.73;13.87;;;2.40;94.30;;;3.92;67.87;100306.56;3082281;46;20434;-66
2023/12/05 05:07:47;;;;;;;20.73;13.20;;;2.40;94.20;;;3.90;68.07;100306.69;3081504;46;20451;-66
2023/12/05 05:10:16;;;;;;;19.73;13.43;;;2.40;94.20;;;3.91;68.32;100313.53;3081703;46;20496;-66
2023/12/05 05:12:44;;;;;;;20.10;14.33;;;2.40;94.20;;;3.89;68.09;100310.25;3081643;46;20460;-65
2023/12/05 05:15:12;;;;;;;17.87;13.50;;;2.30;94.10;;;3.91;68.16;100305.72;3081686;46;20446;-65
2023/12/05 05:17:41;;;;;;;17.90;13.33;;;2.30;94.10;;;3.92;68.27;100312.56;3081645;46;20454;-66
2023/12/05 05:20:10;;;;;;;16.07;12.87;;;2.30;94.10;;;3.91;68.11;100308.34;3081532;46;20560;-66
2023/12/05 05:22:38;;;;;;;18.10;12.20;;;2.30;94.10;;;3.91;67.78;100310.94;3081086;46;20996;-65
2023/12/05 05:25:08;;;;;;;20.47;13.40;;;2.30;94.10;;;3.92;68.02;100312.56;3082053;46;20446;-66
2023/12/05 05:27:36;;;;;;;21.97;13.70;;;2.30;94.10;;;3.89;68.08;100302.44;3080658;46;20567;-66
2023/12/05 05:30:06;;;;;;;16.40;12.07;;;2.30;94.20;;;3.89;68.03;100307.66;3081075;46;20459;-66
2023/12/05 05:32:34;;;;;;;23.00;13.07;;;2.30;94.10;;;3.88;68.26;100308.59;3081451;46;20430;-64
2023/12/05 05:35:04;;;;;;;21.20;14.30;;;2.30;94.10;;;3.88;68.13;100306.00;3081160;46;20522;-66
2023/12/05 05:37:33;;;;;;;19.47;13.80;;;2.30;94.00;;;3.85;67.89;100306.28;3081692;46;20481;-62
2023/12/05 05:40:02;;;;;;;20.07;14.13;;;2.30;94.10;;;3.86;68.25;100300.13;3081906;46;20434;-64
2023/12/05 05:42:30;;;;;;;22.33;14.63;;;2.30;94.20;;;3.87;68.40;100306.97;3081420;46;21095;-66
2023/12/05 05:44:59;;;;;;;19.13;13.67;;;2.30;94.20;;;3.89;68.37;100302.44;3081013;46;21107;-66
2023/12/05 05:47:28;;;;;;;21.43;14.97;;;2.30;94.30;;;3.92;68.53;100306.56;3081352;46;20466;-64
2023/12/05 05:49:57;;;;;;;22.60;14.40;;;2.30;94.40;;;3.93;67.96;100302.97;3081270;46;20435;-66
2023/12/05 05:52:26;;;;;;;24.60;14.37;;;2.30;94.30;;;3.93;68.11;100303.81;3080954;46;20518;-66
2023/12/05 05:54:54;;;;;;;19.93;14.07;;;2.30;94.20;;;3.94;67.98;100309.84;3080724;46;20464;-66
2023/12/05 05:57:22;;;;;;;20.33;14.47;;;2.30;94.20;;;3.94;68.37;100305.44;3080717;46;21057;-66
2023/12/05 05:59:51;;;;;;;21.23;14.33;;;2.30;94.20;;;3.93;68.01;100303.81;3081078;46;20457;-65
2023/12/05 06:02:19;;;;;;;21.47;15.17;;;2.30;94.10;;;3.91;68.03;100305.72;3081381;46;20438;-66
2023/12/05 06:04:48;;;;;;;21.10;14.10;;;2.30;94.10;;;3.86;68.05;100297.53;3080971;46;20494;-66
2023/12/05 06:07:16;;;;;;;20.77;13.60;;;2.30;94.00;;;3.85;68.21;100301.06;3081253;46;20438;-66
2023/12/05 06:09:45;;;;;;;20.70;14.73;;;2.30;94.00;;;3.86;68.23;100301.91;3081332;46;21009;-66
2023/12/05 06:12:13;;;;;;;20.07;13.50;;;2.30;94.10;;;3.87;68.33;100308.75;3080307;46;20455;-65
2023/12/05 06:14:42;;;;;;;21.57;15.03;;;2.30;94.20;;;3.88;68.10;100305.19;3080631;46;20558;-65
2023/12/05 06:17:10;;;;;;;19.87;14.43;;;2.30;94.30;;;3.88;68.28;100311.22;3080927;46;20480;-65
2023/12/05 06:19:38;;;;;;;23.30;15.50;;;2.30;94.30;;;3.89;68.54;100318.06;3081222;46;20962;-66
2023/12/05 06:22:07;;;;;;;19.70;14.00;;;2.30;94.40;;;3.91;68.29;100305.72;3080919;46;21008;-66
2023/12/05 06:24:35;;;;;;;24.73;14.90;;;2.30;94.40;;;3.92;68.22;100315.16;3080616;46;21114;-65
2023/12/05 06:27:04;;;;;;;19.53;13.60;;;2.30;94.30;;;3.92;68.23;100312.56;3079957;46;20638;-66
2023/12/05 06:29:33;;;;;;;25.13;14.13;;;2.30;94.30;;;3.92;68.20;100317.75;3080995;46;20430;-66
2023/12/05 06:32:01;;;;;;;23.43;15.37;;;2.30;94.40;;;3.91;68.56;100320.53;3079895;46;20594;-66
2023/12/05 06:34:29;;;;;;;20.37;14.50;;;2.30;94.40;;;3.91;68.54;100315.31;3080160;46;20446;-66
2023/12/05 06:36:58;;;;;;;20.50;14.07;;;2.30;94.40;;;3.92;68.61;100317.75;3080877;46;21000;-65
2023/12/05 06:39:27;;;;;;;22.10;14.37;;;2.30;94.50;;;3.93;68.39;100318.59;3080931;46;20449;-66
2023/12/05 06:41:55;;;;;;;22.30;15.77;;;2.30;94.50;;;3.92;68.35;100319.56;3083345;46;20426;-66
2023/12/05 06:44:24;;;;;;;22.33;15.07;;;2.40;94.40;;;3.89;68.36;100323.28;3082496;46;20575;-66
2023/12/05 06:46:52;;;;;;;22.73;14.93;;;2.30;94.30;;;3.86;68.28;100307.94;3082870;46;20544;-66
2023/12/05 06:49:22;;;;;;;23.57;16.27;;;2.30;94.30;;;3.85;68.43;100321.91;3083195;46;20569;-67
2023/12/05 06:51:56;;;;;;;23.13;16.20;;;2.30;94.30;;;3.87;68.46;100316.56;3082891;46;20454;-67
2023/12/05 06:54:25;;;;;;;26.00;15.97;;;2.30;94.30;;;3.89;68.52;100317.25;3082461;46;21055;-66
2023/12/05 06:56:53;;;;;;;21.43;15.20;;;2.30;94.30;;;3.86;68.24;100317.53;3083035;46;20556;-65
2023/12/05 06:59:22;;;;;;;25.40;17.17;;;2.30;94.40;;;3.85;68.72;100311.50;3079570;46;20456;-66
2023/12/05 07:01:50;;;;;;;24.87;16.60;;;2.30;94.50;;;3.84;68.73;100320.28;3082912;46;20513;-66
2023/12/05 07:04:19;;;;;;;23.33;16.83;;;2.30;94.50;;;3.82;68.77;100327.41;3082455;46;20522;-66
2023/12/05 07:06:49;;;;;;;23.90;15.17;;;2.30;94.50;;;3.82;68.76;100314.41;3081659;46;20611;-66
2023/12/05 07:09:19;;;;;;;25.87;17.13;;;2.30;94.60;;;3.80;68.67;100329.34;3082139;46;21041;-66
2023/12/05 07:11:48;;;;;;;24.40;17.90;;;2.30;94.60;;;3.77;68.80;100324.41;3082883;46;20433;-64
2023/12/05 07:14:16;;;;;;;23.17;17.10;;;2.30;94.60;;;3.76;69.10;100327.13;3082411;46;20511;-63
2023/12/05 07:16:46;;;;;;;24.17;17.83;;;2.20;94.60;;;3.76;69.07;100327.97;3081629;46;20462;-65
2023/12/05 07:19:21;;;;;;;25.80;17.37;;;2.30;94.80;;;3.78;69.56;100327.84;3082787;46;20434;-66
2023/12/05 07:21:50;;;;;;;24.80;17.20;;;2.20;94.90;;;3.75;69.53;100336.75;3081043;46;21037;-66
2023/12/05 07:24:18;;;;;;;30.63;21.77;;;2.20;94.80;;;3.76;69.70;100333.16;3081696;43;20497;-67
2023/12/05 07:26:48;;;;;;;29.07;19.47;;;2.20;95.10;;;3.81;70.00;100343.16;3080777;46;20455;-66
2023/12/05 07:29:16;;;;;;;24.40;17.77;;;2.30;95.10;;;3.81;69.77;100336.16;3079341;46;20439;-67
2023/12/05 07:31:46;;;;;;;25.87;17.43;;;2.30;95.20;;;3.80;69.34;100321.53;3081689;46;20635;-66
2023/12/05 07:34:15;;;;;;;23.73;16.70;;;2.30;95.00;;;3.79;69.75;100327.69;3081229;46;20449;-67
2023/12/05 07:36:44;;;;;;;24.57;17.23;;;2.30;95.00;;;3.79;69.85;100332.88;3081741;46;20536;-65
2023/12/05 07:39:13;;;;;;;23.97;16.37;;;2.20;95.10;;;3.80;69.86;100324.13;3082546;46;20454;-66
2023/12/05 07:41:42;;;;;;;25.13;17.40;;;2.30;95.10;;;3.83;69.57;100333.41;3082422;46;20519;-63
2023/12/05 07:44:11;;;;;;;29.43;18.50;;;2.30;95.20;;;3.83;69.70;100334.22;3081611;43;20448;-65
2023/12/05 07:46:43;;;;;;;24.07;16.07;;;2.30;95.10;;;3.83;69.48;100331.63;3079118;46;20441;-66
2023/12/05 07:49:11;;;;;;;28.13;17.50;;;2.30;95.10;;;3.85;69.57;100336.72;3080288;46;20529;-65
2023/12/05 07:51:40;;;;;;;24.23;15.77;;;2.30;95.00;;;3.87;69.77;100330.41;3079720;46;20434;-64
2023/12/05 07:54:08;;;;;;;30.77;21.10;;;2.30;95.10;;;3.90;69.64;100337.91;3080590;43;20616;-63
2023/12/05 07:56:37;;;;;;;31.30;21.27;;;2.30;95.10;;;3.91;69.33;100336.97;3081749;46;20553;-63
2023/12/05 07:59:05;;;;;;;28.20;17.60;;;2.30;95.00;;;3.92;69.22;100335.97;3082203;46;20438;-64
2023/12/05 08:01:34;;;;;;;30.23;18.90;;;2.30;94.90;;;3.94;69.53;100341.91;3080219;46;20542;-65
2023/12/05 08:04:06;;;;;;;28.67;19.40;;;2.30;94.90;;;3.95;69.42;100353.09;3081722;46;20470;-66
2023/12/05 08:06:34;;;;;;;29.27;18.50;;;2.30;95.00;;;3.95;69.35;100348.72;3082128;46;20448;-66
2023/12/05 08:09:03;;;;;;;29.23;18.77;;;2.30;94.90;;;3.95;69.33;100348.72;3081279;46;20431;-66
2023/12/05 08:11:38;;;;;;;28.20;17.27;;;2.30;94.90;;;3.95;69.36;100348.72;3080247;46;20575;-66
2023/12/05 08:14:06;;;;;;;28.80;18.47;;;2.30;94.90;;;3.95;68.99;100346.13;3081282;46;20475;-66
2023/12/05 08:16:34;;;;;;;27.97;18.00;;;2.30;94.80;;;3.97;69.17;100344.19;3079635;46;21011;-65
2023/12/05 08:19:03;;;;;;;25.27;17.43;;;2.30;94.80;;;4.01;69.14;100358.59;3081087;46;20600;-66
2023/12/05 08:21:32;;;;;;;25.33;17.63;;;2.40;95.10;;;4.05;69.00;100359.94;3074331;46;20438;-63
2023/12/05 08:24:00;;;;;;;32.33;20.30;;;2.40;94.80;;;4.05;68.55;100354.72;3071121;46;20493;-65
2023/12/05 08:26:29;;;;;;;24.73;18.17;;;2.40;94.60;;;4.07;68.53;100363.22;3071114;46;20499;-67
2023/12/05 08:28:58;;;;;;;28.07;18.27;;;2.40;94.70;;;4.09;68.78;100361.28;3070850;46;20481;-67
2023/12/05 08:31:26;;;;;;;27.40;18.33;;;2.40;94.70;;;4.11;68.50;100361.16;3070227;46;20454;-67
2023/12/05 08:33:56;;;;;;;25.87;17.00;;;2.40;94.80;;;4.10;68.83;100370.75;3068683;43;20442;-66
2023/12/05 08:36:24;;;;;;;26.93;18.67;;;2.40;94.80;;;4.16;68.98;100365.94;3070099;46;20443;-65
2023/12/05 08:38:53;;;;;;;25.43;18.20;;;2.50;94.90;;;4.17;68.39;100370.16;3068998;46;20565;-64
2023/12/05 08:41:22;;;;;;;25.67;17.77;;;2.50;94.60;;;4.16;68.31;100365.94;3068348;46;20479;-65
2023/12/05 08:43:50;;;;;;;32.30;18.47;;;2.50;94.30;;;4.14;68.24;100373.06;3068431;46;20504;-66
2023/12/05 08:46:22;;;;;;;24.13;17.40;;;2.50;94.40;;;4.13;68.34;100361.00;3077353;46;20460;-63
2023/12/05 08:48:55;;;;;;;23.83;17.40;;;2.50;94.50;;;4.10;68.16;100356.91;3079964;46;20443;-66
2023/12/05 08:51:23;;;;;;;27.83;17.97;;;2.50;94.50;;;4.13;68.67;100366.22;3081399;46;20438;-64
2023/12/05 08:53:52;;;;;;;30.30;19.73;;;2.50;94.70;;;4.14;68.34;100365.25;3081191;46;20727;-66
2023/12/05 08:56:21;;;;;;;27.33;18.37;;;2.50;94.70;;;4.13;68.25;100363.59;3080782;46;20559;-66
2023/12/05 08:58:49;;;;;;;29.77;18.30;;;2.50;94.60;;;4.08;68.47;100362.25;3081728;46;20438;-66
2023/12/05 09:01:19;;;;;;;43.10;26.43;;;2.50;94.40;;;4.08;68.36;100361.44;3078847;46;20584;-66
2023/12/05 09:03:48;;;;;;;30.97;20.53;;;2.50;94.40;;;4.10;68.55;100372.53;3079027;46;20487;-66
2023/12/05 09:06:16;;;;;;;26.30;19.13;;;2.50;94.40;;;4.13;68.53;100372.25;3081117;46;21014;-66
2023/12/05 09:08:45;;;;;;;31.80;20.67;;;2.50;94.50;;;4.15;68.84;100369.50;3081505;46;20522;-64
2023/12/05 09:11:14;;;;;;;27.20;18.50;;;2.50;94.60;;;4.17;68.41;100373.59;3080419;46;20434;-66
2023/12/05 09:13:42;;;;;;;28.87;18.70;;;2.50;94.60;;;4.17;68.67;100377.97;3080141;46;20496;-67
2023/12/05 09:16:10;;;;;;;28.10;19.73;;;2.50;94.50;;;4.14;68.27;100378.28;3080556;46;20467;-66
2023/12/05 09:18:39;;;;;;;29.27;19.37;;;2.50;94.40;;;4.09;68.11;100379.50;3080011;46;20491;-66
2023/12/05 09:21:08;;;;;;;31.13;20.43;;;2.50;94.30;;;4.06;68.29;100377.19;3080944;46;20525;-65
2023/12/05 09:23:36;;;;;;;31.77;20.00;;;2.50;94.30;;;4.07;68.60;100378.84;3080729;46;21105;-66
2023/12/05 09:26:05;;;;;;;29.67;21.53;;;2.50;94.40;;;4.08;68.67;100380.47;3079663;46;20423;-68
2023/12/05 09:28:34;;;;;;;27.90;19.57;;;2.50;94.50;;;4.11;68.72;100380.19;3080065;46;20432;-67
2023/12/05 09:31:02;;;;;;;31.93;20.67;;;2.50;94.40;;;4.13;68.67;100384.44;3081186;46;20434;-66
2023/12/05 09:33:31;;;;;;;26.50;19.10;;;2.50;94.40;;;4.13;68.21;100381.84;3080016;46;20513;-66
2023/12/05 09:36:00;;;;;;;27.40;19.27;;;2.50;94.50;;;4.13;68.37;100384.44;3078972;46;20591;-66
2023/12/05 09:38:28;;;;;;;26.37;18.83;;;2.50;94.40;;;4.10;68.13;100383.75;3081013;46;20430;-65
2023/12/05 09:40:57;;;;;;;26.20;19.37;;;2.50;94.30;;;4.13;68.59;100387.03;3080646;46;21088;-66
2023/12/05 09:43:27;;;;;;;31.37;19.00;;;2.50;94.40;;;4.15;68.59;100380.72;3076569;46;20466;-66
2023/12/05 09:46:08;;;;;;;33.00;20.47;;;2.50;94.60;;;4.20;69.00;100385.50;3078345;43;20565;-64
2023/12/05 09:48:54;;;;;;;35.73;23.93;;;2.60;94.70;;;4.20;68.53;100382.91;3079824;46;20430;-65
2023/12/05 09:51:23;;;;;;;30.40;20.23;;;2.60;94.70;;;4.23;68.75;100387.84;3079521;46;20495;-64
2023/12/05 09:53:55;;;;;;;33.33;21.43;;;2.60;94.70;;;4.25;68.61;100388.50;3080429;46;20487;-67
2023/12/05 09:56:24;;;;;;;29.87;20.03;;;2.60;94.60;;;4.27;68.66;100389.19;3080133;46;20504;-65
2023/12/05 09:58:54;;;;;;;38.00;24.33;;;2.60;94.60;;;4.28;68.58;100390.84;3079547;46;20556;-66
2023/12/05 10:01:25;;;;;;;33.17;20.57;;;2.60;94.60;;;4.29;68.65;100389.84;3080190;43;20434;-64
2023/12/05 10:04:01;;;;;;;31.33;21.83;;;2.70;94.60;;;4.28;68.46;100390.84;3080588;46;20478;-64
2023/12/05 10:06:35;;;;;;;30.57;20.40;;;2.70;94.50;;;4.25;68.27;100398.94;3080202;46;20468;-65
2023/12/05 10:09:08;;;;;;;27.97;20.60;;;2.70;94.40;;;4.21;68.42;100384.56;3079349;46;20434;-65
2023/12/05 10:11:38;;;;;;;30.10;20.50;;;2.60;94.30;;;4.19;68.55;100391.66;3078632;46;20443;-66
2023/12/05 10:14:07;;;;;;;27.40;19.03;;;2.60;94.60;;;4.20;68.62;100386.34;3077874;46;21075;-65
2023/12/05 10:16:36;;;;;;;29.97;20.37;;;2.60;94.60;;;4.24;68.95;100386.84;3079918;43;20427;-64
2023/12/05 10:19:08;;;;;;;30.83;20.90;;;2.60;94.60;;;4.24;68.58;100385.06;3078136;46;20455;-65
2023/12/05 10:21:37;;;;;;;31.10;21.17;;;2.60;94.70;;;4.26;68.70;100382.31;3080127;46;20446;-64
2023/12/05 10:24:08;;;;;;;36.23;21.63;;;2.60;94.80;;;4.29;69.12;100376.84;3079066;46;20478;-67